Time;durP1;ratioP1;P1;durP2;ratioP2;P2;SDS_P1;SDS_P2;PMS_P1;PMS_P2;Temp;Humidity;BMP_temperature;BMP_pressure;BME280_temperature;BME280_humidity;BME280_pressure;Samples;Min_cycle;Max_cycle;Signal;HPM_P1;HPM_P2
2023/02/12 00:01:42;;;;;;;9.40;6.50;;;;;;;;;;5134931;27;20536;-62
2023/02/12 00:04:09;;;;;;;16.13;6.43;;;;;;;;;;5134741;27;20452;-61
2023/02/12 00:06:36;;;;;;;15.37;6.63;;;;;;;;;;5134733;27;20469;-61
2023/02/12 00:09:05;;;;;;;10.87;6.27;;;;;;;;;;5134525;27;20938;-61
2023/02/12 00:11:31;;;;;;;15.00;7.23;;;;;;;;;;5134350;27;20506;-61
2023/02/12 00:13:59;;;;;;;12.07;6.60;;;;;;;;;;5134585;27;20451;-61
2023/02/12 00:16:27;;;;;;;15.47;7.60;;;;;;;;;;5134599;27;20545;-61
2023/02/12 00:18:55;;;;;;;13.30;6.37;;;;;;;;;;5134380;27;20524;-61
2023/02/12 00:21:22;;;;;;;15.37;7.30;;;;;;;;;;5134251;27;20532;-61
2023/02/12 00:23:49;;;;;;;15.30;7.43;;;;;;;;;;5134174;27;20494;-61
2023/02/12 00:26:18;;;;;;;13.53;6.60;;;;;;;;;;5134218;27;20447;-62
2023/02/12 00:28:45;;;;;;;10.07;7.00;;;;;;;;;;5134292;27;20974;-61
2023/02/12 00:31:13;;;;;;;15.57;7.40;;;;;;;;;;5134145;27;20473;-61
2023/02/12 00:33:40;;;;;;;15.03;7.33;;;;;;;;;;5134248;27;20451;-62
2023/02/12 00:36:07;;;;;;;15.60;7.20;;;;;;;;;;5134113;27;20565;-61
2023/02/12 00:38:35;;;;;;;14.90;6.80;;;;;;;;;;5133970;27;20528;-61
2023/02/12 00:41:02;;;;;;;13.07;7.57;;;;;;;;;;5134223;27;20536;-61
2023/02/12 00:43:30;;;;;;;14.33;7.47;;;;;;;;;;5134071;27;20449;-61
2023/02/12 00:45:57;;;;;;;14.97;7.63;;;;;;;;;;5133721;27;20578;-61
2023/02/12 00:48:24;;;;;;;10.60;6.53;;;;;;;;;;5133858;27;20445;-61
2023/02/12 00:50:51;;;;;;;18.57;8.83;;;;;;;;;;5133676;27;20475;-61
2023/02/12 00:53:18;;;;;;;13.67;6.87;;;;;;;;;;5133678;27;20454;-61
2023/02/12 00:55:45;;;;;;;10.77;6.67;;;;;;;;;;5133804;27;20445;-61
2023/02/12 00:58:12;;;;;;;16.50;7.10;;;;;;;;;;5133632;27;20962;-61
2023/02/12 01:00:41;;;;;;;16.70;7.20;;;;;;;;;;5133801;27;20542;-61
2023/02/12 01:03:08;;;;;;;13.80;8.20;;;;;;;;;;5133638;27;20563;-62
2023/02/12 01:05:35;;;;;;;14.63;7.20;;;;;;;;;;5133506;27;21011;-61
2023/02/12 01:08:04;;;;;;;10.13;6.13;;;;;;;;;;5133781;27;20854;-61
2023/02/12 01:10:31;;;;;;;9.40;6.07;;;;;;;;;;5133642;27;20473;-61
2023/02/12 01:12:58;;;;;;;15.03;6.80;;;;;;;;;;5133486;28;21001;-61
2023/02/12 01:15:25;;;;;;;10.53;6.53;;;;;;;;;;5133553;28;20448;-61
2023/02/12 01:17:54;;;;;;;12.50;6.50;;;;;;;;;;5133572;28;20452;-61
2023/02/12 01:20:22;;;;;;;10.03;5.70;;;;;;;;;;5133408;28;20890;-61
2023/02/12 01:22:49;;;;;;;13.70;6.77;;;;;;;;;;5133614;28;20448;-61
2023/02/12 01:25:16;;;;;;;13.20;6.70;;;;;;;;;;5136475;27;20451;-61
2023/02/12 01:27:42;;;;;;;12.50;6.10;;;;;;;;;;5137688;27;20444;-61
2023/02/12 01:30:12;;;;;;;13.57;6.00;;;;;;;;;;5137635;27;20452;-61
2023/02/12 01:32:39;;;;;;;20.10;6.00;;;;;;;;;;5137447;27;20474;-61
2023/02/12 01:35:09;;;;;;;16.43;6.50;;;;;;;;;;5137786;27;20475;-61
2023/02/12 01:37:36;;;;;;;12.93;5.30;;;;;;;;;;5137644;27;20448;-61
2023/02/12 01:40:04;;;;;;;9.23;6.00;;;;;;;;;;5137501;27;20460;-61
2023/02/12 01:42:31;;;;;;;16.63;6.40;;;;;;;;;;5137346;27;20550;-61
2023/02/12 01:45:28;;;;;;;15.77;6.10;;;;;;;;;;5137091;27;20511;-61
2023/02/12 01:47:55;;;;;;;8.20;5.23;;;;;;;;;;5033792;28;20485;-61
2023/02/12 01:50:24;;;;;;;12.27;5.90;;;;;;;;;;5113415;27;20478;-62
2023/02/12 01:52:52;;;;;;;16.23;6.00;;;;;;;;;;5137328;27;20535;-61
2023/02/12 01:55:19;;;;;;;12.03;5.83;;;;;;;;;;5137225;27;20445;-61
2023/02/12 01:57:47;;;;;;;16.30;5.70;;;;;;;;;;5136977;27;20811;-61
2023/02/12 02:00:16;;;;;;;14.23;6.80;;;;;;;;;;5137250;27;20452;-61
2023/02/12 02:02:44;;;;;;;16.90;5.90;;;;;;;;;;5136985;27;20449;-61
2023/02/12 02:05:11;;;;;;;16.53;6.30;;;;;;;;;;5137142;27;20544;-61
2023/02/12 02:07:39;;;;;;;13.73;5.30;;;;;;;;;;5137009;27;20451;-61
2023/02/12 02:10:07;;;;;;;11.73;5.63;;;;;;;;;;5136801;27;20445;-61
2023/02/12 02:15:19;;;;;;;13.50;6.70;;;;;;;;;;5136943;27;20847;-61
2023/02/12 02:17:53;;;;;;;9.23;5.70;;;;;;;;;;5137002;27;20489;-61
2023/02/12 02:20:38;;;;;;;11.87;5.80;;;;;;;;;;5137021;27;20448;-61
2023/02/12 02:23:20;;;;;;;17.30;5.87;;;;;;;;;;5137029;27;20535;-61
2023/02/12 02:26:01;;;;;;;12.67;5.37;;;;;;;;;;5136677;27;20524;-61
2023/02/12 02:28:41;;;;;;;16.43;5.90;;;;;;;;;;5136591;27;20437;-61
2023/02/12 02:31:13;;;;;;;12.70;6.67;;;;;;;;;;5136349;27;20475;-61
2023/02/12 02:33:44;;;;;;;19.60;6.30;;;;;;;;;;5136577;27;20459;-61
2023/02/12 02:36:15;;;;;;;9.93;5.43;;;;;;;;;;5134953;27;20459;-61
2023/02/12 02:38:45;;;;;;;16.80;6.67;;;;;;;;;;5136318;27;20459;-61
2023/02/12 02:41:16;;;;;;;18.00;6.80;;;;;;;;;;5136242;27;20548;-61
2023/02/12 02:43:45;;;;;;;14.13;5.23;;;;;;;;;;5136062;27;20891;-61
2023/02/12 02:46:16;;;;;;;13.03;5.97;;;;;;;;;;5136065;27;20481;-61
2023/02/12 02:48:46;;;;;;;9.23;5.23;;;;;;;;;;5136068;27;21043;-61
2023/02/12 02:51:15;;;;;;;18.30;7.03;;;;;;;;;;5136066;27;20575;-61
2023/02/12 02:53:44;;;;;;;9.40;4.63;;;;;;;;;;5136541;27;20795;-61
2023/02/12 02:56:13;;;;;;;16.10;5.53;;;;;;;;;;5135845;27;20445;-61
2023/02/12 02:58:42;;;;;;;16.30;6.83;;;;;;;;;;5135994;27;20445;-61
2023/02/12 03:01:11;;;;;;;16.80;5.30;;;;;;;;;;5135972;27;20449;-61
2023/02/12 03:03:43;;;;;;;14.77;5.10;;;;;;;;;;5136085;27;20532;-61
2023/02/12 03:06:11;;;;;;;10.83;5.10;;;;;;;;;;5135790;27;20455;-61
2023/02/12 03:08:39;;;;;;;20.53;5.80;;;;;;;;;;5135741;27;20445;-61
2023/02/12 03:11:09;;;;;;;12.50;5.50;;;;;;;;;;5135701;27;20555;-61
2023/02/12 03:13:38;;;;;;;12.17;5.13;;;;;;;;;;5135806;27;20451;-61
2023/02/12 03:16:07;;;;;;;14.30;5.30;;;;;;;;;;5135701;27;20452;-61
2023/02/12 03:18:36;;;;;;;8.50;4.10;;;;;;;;;;5135611;27;20532;-61
2023/02/12 03:21:07;;;;;;;16.63;4.93;;;;;;;;;;5135536;27;20536;-61
2023/02/12 03:23:38;;;;;;;16.50;6.27;;;;;;;;;;5135712;27;20536;-61
2023/02/12 03:26:06;;;;;;;13.30;4.40;;;;;;;;;;5135679;27;20445;-61
2023/02/12 03:28:34;;;;;;;12.70;4.00;;;;;;;;;;5135465;27;20447;-61
2023/02/12 03:31:08;;;;;;;17.77;5.77;;;;;;;;;;5135331;27;20451;-61
2023/02/12 03:33:38;;;;;;;11.53;4.30;;;;;;;;;;5135248;27;20453;-61
2023/02/12 03:36:11;;;;;;;15.70;4.83;;;;;;;;;;5135502;27;20781;-61
2023/02/12 03:38:40;;;;;;;10.13;3.70;;;;;;;;;;5135121;27;20452;-61
2023/02/12 03:41:09;;;;;;;19.10;5.60;;;;;;;;;;5135189;27;20477;-61
2023/02/12 03:43:40;;;;;;;12.27;4.57;;;;;;;;;;5135055;27;20449;-61
2023/02/12 03:46:13;;;;;;;19.60;5.40;;;;;;;;;;5134873;27;20469;-61
2023/02/12 03:48:42;;;;;;;13.53;4.50;;;;;;;;;;5134745;27;20449;-61
2023/02/12 03:51:17;;;;;;;16.50;4.60;;;;;;;;;;5134665;27;20440;-61
2023/02/12 03:53:44;;;;;;;9.70;4.27;;;;;;;;;;5134918;27;20540;-61
2023/02/12 03:56:13;;;;;;;9.90;4.73;;;;;;;;;;5134831;27;20540;-61
2023/02/12 03:58:42;;;;;;;17.83;5.27;;;;;;;;;;5134614;27;20989;-61
2023/02/12 04:01:09;;;;;;;18.47;4.27;;;;;;;;;;5134788;27;20445;-61
2023/02/12 04:03:36;;;;;;;10.13;4.93;;;;;;;;;;5134719;27;20445;-61
2023/02/12 04:06:04;;;;;;;15.50;4.93;;;;;;;;;;5134548;27;20481;-61
2023/02/12 04:08:32;;;;;;;13.20;5.10;;;;;;;;;;5134443;27;20448;-61
2023/02/12 04:11:08;;;;;;;15.70;4.90;;;;;;;;;;5134277;27;20540;-61
2023/02/12 04:13:41;;;;;;;17.27;4.93;;;;;;;;;;5134784;27;20444;-61
2023/02/12 04:16:15;;;;;;;14.90;5.03;;;;;;;;;;5134784;27;20452;-61
2023/02/12 04:18:43;;;;;;;13.23;4.60;;;;;;;;;;5134630;27;20448;-61
2023/02/12 04:21:14;;;;;;;15.37;5.50;;;;;;;;;;5134453;27;20849;-61
2023/02/12 04:23:46;;;;;;;13.10;4.53;;;;;;;;;;5134260;27;20874;-61
2023/02/12 04:26:18;;;;;;;16.50;5.63;;;;;;;;;;5134445;27;20568;-60
2023/02/12 04:28:49;;;;;;;14.73;4.87;;;;;;;;;;5134371;27;20543;-61
2023/02/12 04:31:21;;;;;;;12.67;4.23;;;;;;;;;;5134219;27;20552;-61
2023/02/12 04:33:49;;;;;;;11.13;4.33;;;;;;;;;;5134215;27;20437;-61
2023/02/12 04:36:18;;;;;;;13.23;5.20;;;;;;;;;;5133981;27;20459;-61
2023/02/12 04:38:48;;;;;;;11.93;4.60;;;;;;;;;;5134107;27;20441;-61
2023/02/12 04:41:16;;;;;;;23.30;5.83;;;;;;;;;;5134130;27;20532;-61
2023/02/12 04:43:42;;;;;;;11.30;5.00;;;;;;;;;;5133932;27;20437;-62
2023/02/12 04:46:09;;;;;;;15.33;4.77;;;;;;;;;;5133744;27;20475;-61
2023/02/12 04:48:37;;;;;;;13.40;4.57;;;;;;;;;;5133725;27;20447;-61
2023/02/12 04:51:05;;;;;;;12.50;4.53;;;;;;;;;;5134056;27;20443;-61
2023/02/12 04:53:32;;;;;;;9.93;4.53;;;;;;;;;;5133613;27;20998;-62
2023/02/12 04:56:00;;;;;;;14.77;4.30;;;;;;;;;;5133775;27;20820;-61
2023/02/12 04:58:27;;;;;;;7.63;4.10;;;;;;;;;;5133024;27;20462;-61
2023/02/12 05:00:55;;;;;;;15.77;4.67;;;;;;;;;;5133467;27;20477;-61
2023/02/12 05:03:21;;;;;;;17.83;5.03;;;;;;;;;;5133566;27;20445;-61
2023/02/12 05:05:48;;;;;;;10.10;4.47;;;;;;;;;;5133617;27;20445;-61
2023/02/12 05:08:15;;;;;;;12.13;4.27;;;;;;;;;;5133625;27;20802;-61
2023/02/12 05:10:42;;;;;;;11.80;4.83;;;;;;;;;;5133491;27;20456;-61
2023/02/12 05:13:11;;;;;;;9.43;3.80;;;;;;;;;;5133316;28;20481;-61
2023/02/12 05:15:39;;;;;;;8.80;4.10;;;;;;;;;;5133341;28;20956;-61
2023/02/12 05:18:06;;;;;;;11.37;4.13;;;;;;;;;;5133751;28;20824;-61
2023/02/12 05:20:33;;;;;;;7.80;4.37;;;;;;;;;;5133541;28;20448;-61
2023/02/12 05:22:59;;;;;;;12.00;4.20;;;;;;;;;;5133574;28;20445;-61
2023/02/12 05:25:26;;;;;;;7.63;4.03;;;;;;;;;;5133389;28;20987;-61
2023/02/12 05:27:55;;;;;;;8.23;3.77;;;;;;;;;;5133389;28;20452;-61
2023/02/12 05:30:23;;;;;;;6.80;3.57;;;;;;;;;;5133290;28;20955;-61
2023/02/12 05:32:50;;;;;;;8.30;3.23;;;;;;;;;;5133392;28;20481;-61
2023/02/12 05:35:17;;;;;;;2.93;2.00;;;;;;;;;;5133422;28;20451;-62
2023/02/12 05:37:44;;;;;;;4.13;2.87;;;;;;;;;;5133407;28;20455;-62
2023/02/12 05:40:11;;;;;;;2.67;2.23;;;;;;;;;;5133367;28;20478;-61
2023/02/12 05:42:38;;;;;;;2.73;1.93;;;;;;;;;;5133243;28;20892;-62
2023/02/12 05:45:06;;;;;;;3.57;2.47;;;;;;;;;;5133032;28;20471;-61
2023/02/12 05:47:34;;;;;;;4.10;1.70;;;;;;;;;;5133399;28;20541;-62
2023/02/12 05:50:01;;;;;;;4.63;1.97;;;;;;;;;;5133306;28;20452;-61
2023/02/12 05:52:28;;;;;;;4.03;1.90;;;;;;;;;;5133274;28;20867;-61
2023/02/12 05:54:55;;;;;;;3.20;2.10;;;;;;;;;;5133189;28;20547;-61
2023/02/12 05:57:22;;;;;;;3.27;2.87;;;;;;;;;;5133004;28;20454;-61
2023/02/12 05:59:49;;;;;;;4.57;2.75;;;;;;;;;;5133271;28;20452;-61
2023/02/12 06:02:16;;;;;;;3.97;1.90;;;;;;;;;;5133102;28;20191;-61
2023/02/12 06:04:44;;;;;;;3.33;2.73;;;;;;;;;;5133209;28;20453;-60
2023/02/12 06:07:11;;;;;;;3.60;2.30;;;;;;;;;;5133157;28;20445;-61
2023/02/12 06:09:38;;;;;;;5.43;2.50;;;;;;;;;;5133108;27;20444;-61
2023/02/12 06:12:05;;;;;;;5.43;2.63;;;;;;;;;;5136549;27;20472;-61
2023/02/12 06:14:32;;;;;;;4.23;2.47;;;;;;;;;;5136896;27;20445;-61
2023/02/12 06:16:59;;;;;;;5.70;2.37;;;;;;;;;;5136931;27;20562;-61
2023/02/12 06:19:26;;;;;;;4.23;3.20;;;;;;;;;;5136676;27;20456;-61
2023/02/12 06:21:54;;;;;;;6.40;2.43;;;;;;;;;;5136746;27;20452;-61
2023/02/12 06:24:21;;;;;;;8.43;2.60;;;;;;;;;;5136522;27;20869;-61
2023/02/12 06:26:50;;;;;;;5.07;2.35;;;;;;;;;;5136774;27;20451;-61
2023/02/12 06:29:17;;;;;;;2.70;2.20;;;;;;;;;;5136619;27;20216;-61
2023/02/12 06:31:44;;;;;;;2.67;2.47;;;;;;;;;;5136612;27;20771;-61
2023/02/12 06:34:12;;;;;;;4.23;2.13;;;;;;;;;;5136644;27;20444;-61
2023/02/12 06:36:40;;;;;;;4.07;2.27;;;;;;;;;;5136510;27;20448;-61
2023/02/12 06:39:08;;;;;;;3.57;2.07;;;;;;;;;;5136373;27;20448;-61
2023/02/12 06:41:35;;;;;;;4.57;2.73;;;;;;;;;;5136593;27;20483;-61
2023/02/12 06:44:02;;;;;;;4.37;2.63;;;;;;;;;;5136200;27;20460;-61
2023/02/12 06:46:29;;;;;;;5.43;2.20;;;;;;;;;;5136106;27;20508;-61
2023/02/12 06:48:57;;;;;;;4.00;2.00;;;;;;;;;;5136276;27;20457;-61
2023/02/12 06:51:24;;;;;;;3.83;2.38;;;;;;;;;;5136040;27;20452;-61
2023/02/12 06:53:52;;;;;;;3.60;2.00;;;;;;;;;;5136174;27;20577;-61
2023/02/12 06:56:21;;;;;;;3.20;2.28;;;;;;;;;;5135912;27;20980;-61
2023/02/12 06:58:48;;;;;;;4.90;2.10;;;;;;;;;;5135959;27;20187;-61
2023/02/12 07:01:16;;;;;;;3.87;2.20;;;;;;;;;;5135723;27;21007;-61
2023/02/12 07:03:44;;;;;;;3.60;2.40;;;;;;;;;;5135903;27;20808;-61
2023/02/12 07:06:11;;;;;;;4.37;2.53;;;;;;;;;;5135601;27;20477;-61
2023/02/12 07:08:38;;;;;;;3.63;2.40;;;;;;;;;;5135901;27;20510;-61
2023/02/12 07:11:05;;;;;;;6.33;3.10;;;;;;;;;;5135859;27;20445;-61
2023/02/12 07:13:34;;;;;;;4.23;2.93;;;;;;;;;;5135570;27;20484;-61
2023/02/12 07:16:03;;;;;;;4.50;2.73;;;;;;;;;;5135722;27;20814;-61
2023/02/12 07:18:30;;;;;;;6.03;2.63;;;;;;;;;;5135585;27;20961;-61
2023/02/12 07:20:57;;;;;;;2.90;2.43;;;;;;;;;;5135750;27;20459;-61
2023/02/12 07:23:24;;;;;;;3.93;3.30;;;;;;;;;;5134816;27;20806;-63
2023/02/12 07:25:55;;;;;;;4.10;3.00;;;;;;;;;;5135437;27;20937;-61
2023/02/12 07:28:22;;;;;;;3.43;2.63;;;;;;;;;;5135531;27;20452;-61
2023/02/12 07:30:50;;;;;;;7.93;3.23;;;;;;;;;;5135400;27;20444;-61
2023/02/12 07:33:17;;;;;;;7.60;3.50;;;;;;;;;;5135237;27;20472;-61
2023/02/12 07:35:44;;;;;;;3.43;2.30;;;;;;;;;;5135283;27;20548;-61
2023/02/12 07:38:11;;;;;;;4.43;3.57;;;;;;;;;;5135261;27;20476;-61
2023/02/12 07:40:38;;;;;;;6.73;3.43;;;;;;;;;;5135225;27;20444;-61
2023/02/12 07:43:05;;;;;;;5.30;3.00;;;;;;;;;;5135175;27;20499;-61
2023/02/12 07:45:32;;;;;;;3.20;2.90;;;;;;;;;;5134654;27;20480;-61
2023/02/12 07:48:00;;;;;;;3.60;2.93;;;;;;;;;;5135279;27;20903;-61
2023/02/12 07:50:27;;;;;;;7.23;3.93;;;;;;;;;;5135000;27;20441;-61
2023/02/12 07:52:54;;;;;;;7.83;4.47;;;;;;;;;;5135125;27;20475;-61
2023/02/12 07:55:21;;;;;;;5.60;3.70;;;;;;;;;;5134777;27;20525;-61
2023/02/12 07:57:48;;;;;;;4.87;3.40;;;;;;;;;;5134774;27;20281;-61
2023/02/12 08:00:16;;;;;;;4.07;3.00;;;;;;;;;;5134645;27;20531;-61
2023/02/12 08:02:43;;;;;;;6.37;3.90;;;;;;;;;;5134829;27;20456;-61
2023/02/12 08:05:11;;;;;;;6.53;4.53;;;;;;;;;;5134928;27;20483;-61
2023/02/12 08:07:38;;;;;;;7.73;4.27;;;;;;;;;;5134574;27;20448;-61
2023/02/12 08:10:05;;;;;;;9.97;4.07;;;;;;;;;;5134550;27;20448;-61
2023/02/12 08:12:32;;;;;;;5.17;3.30;;;;;;;;;;5134410;27;20454;-61
2023/02/12 08:14:59;;;;;;;5.33;4.40;;;;;;;;;;5134377;27;20451;-61
2023/02/12 08:17:26;;;;;;;8.30;3.90;;;;;;;;;;5134492;27;20477;-61
2023/02/12 08:19:53;;;;;;;6.23;4.00;;;;;;;;;;5134438;27;20862;-61
2023/02/12 08:22:21;;;;;;;8.27;4.53;;;;;;;;;;5134361;27;20449;-61
2023/02/12 08:24:48;;;;;;;8.77;5.30;;;;;;;;;;5134409;27;20441;-61
2023/02/12 08:27:15;;;;;;;5.23;4.30;;;;;;;;;;5134143;27;20786;-61
2023/02/12 08:29:42;;;;;;;8.30;5.27;;;;;;;;;;5134370;27;20453;-61
2023/02/12 08:32:12;;;;;;;8.80;4.50;;;;;;;;;;5134201;27;20454;-61
2023/02/12 08:34:39;;;;;;;7.67;5.37;;;;;;;;;;5133902;27;21041;-61
2023/02/12 08:37:06;;;;;;;13.90;7.27;;;;;;;;;;5134201;27;20453;-61
2023/02/12 08:39:35;;;;;;;6.10;5.23;;;;;;;;;;5133941;27;20502;-61
2023/02/12 08:42:02;;;;;;;11.37;5.63;;;;;;;;;;5134002;27;20446;-61
2023/02/12 08:44:29;;;;;;;5.37;4.77;;;;;;;;;;5133951;27;20475;-61
2023/02/12 08:46:56;;;;;;;6.00;4.40;;;;;;;;;;5134103;27;20453;-61
2023/02/12 08:49:24;;;;;;;9.00;4.17;;;;;;;;;;5133869;27;20474;-61
2023/02/12 08:51:52;;;;;;;5.50;4.00;;;;;;;;;;5133589;27;20780;-61
2023/02/12 08:54:20;;;;;;;4.83;4.30;;;;;;;;;;5133548;27;20575;-61
2023/02/12 08:56:48;;;;;;;4.70;3.20;;;;;;;;;;5133889;27;20527;-61
2023/02/12 08:59:16;;;;;;;5.43;4.00;;;;;;;;;;5133673;27;20480;-61
2023/02/12 09:01:43;;;;;;;4.53;4.00;;;;;;;;;;5133859;27;20471;-61
2023/02/12 09:04:13;;;;;;;8.30;5.50;;;;;;;;;;5133782;27;20874;-61
2023/02/12 09:06:40;;;;;;;5.60;4.30;;;;;;;;;;5133788;27;20444;-61
2023/02/12 09:09:07;;;;;;;6.00;4.90;;;;;;;;;;5133604;27;20525;-61
2023/02/12 09:11:35;;;;;;;5.40;3.83;;;;;;;;;;5133740;27;20939;-61
2023/02/12 09:14:04;;;;;;;4.13;3.80;;;;;;;;;;5134128;27;20975;-60
2023/02/12 09:16:32;;;;;;;8.33;3.30;;;;;;;;;;5133379;28;20555;-60
2023/02/12 09:18:59;;;;;;;12.47;5.23;;;;;;;;;;5133272;28;20883;-61
2023/02/12 09:21:26;;;;;;;6.40;5.10;;;;;;;;;;5133290;28;20471;-61
2023/02/12 09:23:53;;;;;;;5.50;4.60;;;;;;;;;;5133515;28;20445;-61
2023/02/12 09:26:21;;;;;;;9.67;4.87;;;;;;;;;;5133361;28;20454;-61
2023/02/12 09:28:49;;;;;;;6.80;4.87;;;;;;;;;;5133485;28;20845;-60
2023/02/12 09:31:19;;;;;;;10.93;6.13;;;;;;;;;;5133534;28;20453;-61
2023/02/12 09:33:46;;;;;;;7.50;5.30;;;;;;;;;;5133249;28;20512;-60
2023/02/12 09:36:14;;;;;;;10.13;5.80;;;;;;;;;;5133217;28;20456;-61
2023/02/12 09:38:41;;;;;;;9.60;5.83;;;;;;;;;;5133659;28;20453;-60
2023/02/12 09:41:16;;;;;;;9.33;5.90;;;;;;;;;;5133458;28;20445;-60
2023/02/12 09:43:45;;;;;;;9.80;5.80;;;;;;;;;;5133344;28;20452;-60
2023/02/12 09:46:17;;;;;;;8.50;5.70;;;;;;;;;;5135990;27;20843;-60
2023/02/12 09:48:53;;;;;;;8.60;5.07;;;;;;;;;;5137296;27;20448;-61
2023/02/12 09:51:20;;;;;;;14.70;6.50;;;;;;;;;;5137525;27;20444;-60
2023/02/12 09:53:48;;;;;;;20.00;9.50;;;;;;;;;;5137232;27;20559;-60
2023/02/12 09:56:18;;;;;;;21.33;9.90;;;;;;;;;;5137269;27;20445;-60
2023/02/12 09:58:46;;;;;;;14.97;8.30;;;;;;;;;;5136991;27;20445;-61
2023/02/12 10:01:14;;;;;;;20.87;7.40;;;;;;;;;;5137018;27;20554;-60
2023/02/12 10:03:41;;;;;;;13.80;7.60;;;;;;;;;;5137246;27;20776;-61
2023/02/12 10:06:14;;;;;;;10.00;6.60;;;;;;;;;;5137247;27;20445;-61
2023/02/12 10:08:47;;;;;;;12.53;6.60;;;;;;;;;;5137141;27;20956;-60
2023/02/12 10:11:20;;;;;;;15.40;6.83;;;;;;;;;;5136866;27;20481;-60
2023/02/12 10:13:51;;;;;;;16.40;7.03;;;;;;;;;;5136715;27;20564;-61
2023/02/12 10:16:26;;;;;;;12.40;5.93;;;;;;;;;;5137202;27;20540;-61
2023/02/12 10:19:02;;;;;;;16.87;6.80;;;;;;;;;;5136830;27;20449;-61
2023/02/12 10:21:36;;;;;;;11.53;5.47;;;;;;;;;;5136527;27;20799;-61
2023/02/12 10:24:14;;;;;;;14.67;5.57;;;;;;;;;;5136423;27;21015;-61
2023/02/12 10:26:43;;;;;;;10.80;5.00;;;;;;;;;;5136368;27;20450;-61
2023/02/12 10:29:13;;;;;;;13.20;6.10;;;;;;;;;;5136745;27;20824;-61
2023/02/12 10:31:41;;;;;;;10.53;5.60;;;;;;;;;;5136514;27;20441;-61
2023/02/12 10:34:14;;;;;;;10.53;6.67;;;;;;;;;;5136350;27;20472;-60
2023/02/12 10:36:43;;;;;;;8.87;5.80;;;;;;;;;;5136364;27;20449;-61
2023/02/12 10:39:13;;;;;;;18.03;6.47;;;;;;;;;;5136527;27;20515;-61
2023/02/12 10:41:43;;;;;;;14.90;6.67;;;;;;;;;;5136416;27;20452;-61
2023/02/12 10:44:11;;;;;;;12.60;6.20;;;;;;;;;;5136211;27;20445;-60
2023/02/12 10:46:38;;;;;;;12.07;5.63;;;;;;;;;;5136062;27;20552;-60
2023/02/12 10:49:06;;;;;;;15.37;6.67;;;;;;;;;;5136018;27;20540;-60
2023/02/12 10:51:45;;;;;;;17.13;6.47;;;;;;;;;;5135881;27;20456;-61
2023/02/12 10:54:30;;;;;;;15.60;6.90;;;;;;;;;;5135874;27;20477;-60
2023/02/12 10:56:59;;;;;;;17.27;7.23;;;;;;;;;;5134713;27;20445;-61
2023/02/12 10:59:26;;;;;;;12.33;6.90;;;;;;;;;;5135890;27;20541;-60
2023/02/12 11:01:53;;;;;;;13.30;7.60;;;;;;;;;;5136146;27;20448;-61
2023/02/12 11:04:21;;;;;;;9.80;5.07;;;;;;;;;;5136061;27;20533;-60
2023/02/12 11:06:57;;;;;;;7.97;5.30;;;;;;;;;;5135911;27;20452;-60
2023/02/12 11:09:28;;;;;;;10.40;5.40;;;;;;;;;;5135519;27;20445;-60
2023/02/12 11:11:55;;;;;;;12.63;6.10;;;;;;;;;;5135664;27;20451;-60
2023/02/12 11:14:24;;;;;;;8.33;4.60;;;;;;;;;;5135602;27;20576;-61
2023/02/12 11:16:53;;;;;;;13.97;6.07;;;;;;;;;;5135816;27;21065;-61
2023/02/12 11:19:21;;;;;;;10.83;5.70;;;;;;;;;;5135697;27;20890;-60
2023/02/12 11:21:48;;;;;;;11.97;6.80;;;;;;;;;;5135658;27;20887;-61
2023/02/12 11:24:22;;;;;;;12.50;6.17;;;;;;;;;;5135448;27;20449;-60
2023/02/12 11:26:49;;;;;;;11.43;5.60;;;;;;;;;;5135684;27;20797;-60
2023/02/12 11:29:20;;;;;;;14.67;6.27;;;;;;;;;;5135563;27;20800;-61
2023/02/12 11:32:00;;;;;;;7.87;5.30;;;;;;;;;;5135500;27;20532;-61
2023/02/12 11:34:28;;;;;;;11.13;5.17;;;;;;;;;;5135298;27;20476;-61
2023/02/12 11:36:55;;;;;;;14.77;5.40;;;;;;;;;;5135185;27;20841;-61
2023/02/12 11:39:24;;;;;;;11.80;5.57;;;;;;;;;;5135392;27;20445;-60
2023/02/12 11:41:53;;;;;;;13.47;7.23;;;;;;;;;;5135114;27;20802;-61
2023/02/12 11:44:21;;;;;;;9.17;5.60;;;;;;;;;;5134747;27;20945;-61
2023/02/12 11:46:49;;;;;;;11.40;5.63;;;;;;;;;;5135110;27;20451;-61
2023/02/12 11:49:20;;;;;;;12.87;5.63;;;;;;;;;;5134628;27;20453;-61
2023/02/12 11:51:48;;;;;;;17.93;6.87;;;;;;;;;;5134804;27;20465;-61
2023/02/12 11:54:20;;;;;;;10.23;5.67;;;;;;;;;;5134950;27;20507;-61
2023/02/12 11:56:47;;;;;;;15.43;6.40;;;;;;;;;;5134929;27;20456;-61
2023/02/12 11:59:28;;;;;;;13.60;6.83;;;;;;;;;;5134646;27;20504;-61
2023/02/12 12:01:55;;;;;;;10.17;6.40;;;;;;;;;;5134598;27;20459;-61
2023/02/12 12:04:24;;;;;;;11.57;5.83;;;;;;;;;;5134829;27;20486;-60
2023/02/12 12:06:54;;;;;;;8.53;5.67;;;;;;;;;;5134735;27;20449;-60
2023/02/12 12:09:22;;;;;;;10.37;5.27;;;;;;;;;;5134248;27;20536;-60
2023/02/12 12:11:54;;;;;;;8.20;5.13;;;;;;;;;;5134505;27;20543;-60
2023/02/12 12:14:24;;;;;;;12.60;4.73;;;;;;;;;;5134115;27;20980;-61
2023/02/12 12:19:54;;;;;;;8.37;4.80;;;;;;;;;;5134356;27;20810;-61
2023/02/12 12:22:26;;;;;;;7.97;5.77;;;;;;;;;;5134290;27;20445;-60
2023/02/12 12:24:56;;;;;;;8.73;5.10;;;;;;;;;;5134149;27;20532;-60
2023/02/12 12:30:11;;;;;;;12.03;6.90;;;;;;;;;;5133044;27;20445;-60
2023/02/12 12:32:39;;;;;;;14.87;8.00;;;;;;;;;;5134135;27;20449;-60
2023/02/12 12:35:09;;;;;;;11.63;5.93;;;;;;;;;;5133819;27;20481;-61
2023/02/12 12:37:38;;;;;;;10.50;6.30;;;;;;;;;;5134090;27;20445;-60
2023/02/12 12:40:10;;;;;;;9.27;5.63;;;;;;;;;;5134071;27;20544;-61
2023/02/12 12:42:54;;;;;;;10.57;6.63;;;;;;;;;;5134063;27;20544;-60
2023/02/12 12:45:31;;;;;;;13.17;7.37;;;;;;;;;;5133817;27;20477;-61
2023/02/12 12:48:04;;;;;;;15.30;9.33;;;;;;;;;;5134227;27;20429;-60
2023/02/12 12:50:43;;;;;;;14.40;8.20;;;;;;;;;;5134058;27;20441;-61
2023/02/12 12:53:19;;;;;;;13.50;7.00;;;;;;;;;;5133963;27;20460;-61
2023/02/12 12:56:08;;;;;;;10.77;6.60;;;;;;;;;;5133644;27;20839;-61
2023/02/12 12:58:40;;;;;;;8.00;5.83;;;;;;;;;;5133918;27;20461;-61
2023/02/12 13:01:16;;;;;;;13.57;7.17;;;;;;;;;;5133374;27;20528;-60
2023/02/12 13:03:52;;;;;;;8.47;5.60;;;;;;;;;;5133580;27;20453;-61
2023/02/12 13:06:37;;;;;;;12.97;7.87;;;;;;;;;;5133328;27;20459;-60
2023/02/12 13:09:11;;;;;;;16.17;9.33;;;;;;;;;;5116712;27;20495;-61
2023/02/12 13:11:41;;;;;;;14.20;9.20;;;;;;;;;;5133538;27;20444;-61
2023/02/12 13:14:15;;;;;;;11.90;9.50;;;;;;;;;;5133462;27;20472;-61
2023/02/12 13:16:47;;;;;;;12.57;9.07;;;;;;;;;;5133428;28;20452;-60
2023/02/12 13:19:16;;;;;;;9.20;7.87;;;;;;;;;;5132543;27;20954;-61
2023/02/12 13:21:47;;;;;;;10.50;8.13;;;;;;;;;;5133052;28;20476;-60
2023/02/12 13:24:23;;;;;;;10.90;8.00;;;;;;;;;;5133415;28;20544;-60
2023/02/12 13:26:52;;;;;;;10.40;7.57;;;;;;;;;;5133433;28;20506;-61
2023/02/12 13:29:20;;;;;;;10.10;7.33;;;;;;;;;;5133183;28;20821;-61
2023/02/12 13:31:49;;;;;;;9.53;7.00;;;;;;;;;;5133405;28;20455;-61
2023/02/12 13:34:17;;;;;;;10.93;6.60;;;;;;;;;;5133342;28;20475;-60
2023/02/12 13:36:45;;;;;;;7.93;6.27;;;;;;;;;;5133203;28;20441;-61
2023/02/12 13:39:17;;;;;;;11.50;6.97;;;;;;;;;;5133323;28;20441;-61
2023/02/12 13:41:48;;;;;;;8.27;6.70;;;;;;;;;;5133110;28;20928;-61
2023/02/12 13:44:17;;;;;;;8.00;6.80;;;;;;;;;;5133262;28;20796;-61
2023/02/12 13:46:51;;;;;;;7.57;6.77;;;;;;;;;;5133376;28;20532;-61
2023/02/12 13:49:24;;;;;;;11.73;7.73;;;;;;;;;;5133514;28;20885;-61
2023/02/12 13:51:55;;;;;;;11.27;7.60;;;;;;;;;;5133156;28;20468;-60
2023/02/12 13:54:30;;;;;;;9.27;7.13;;;;;;;;;;5133115;28;20561;-62
2023/02/12 13:57:00;;;;;;;15.27;7.23;;;;;;;;;;5132927;28;20436;-60
2023/02/12 13:59:46;;;;;;;7.47;6.77;;;;;;;;;;5133152;28;20591;-60
2023/02/12 14:02:27;;;;;;;9.67;7.47;;;;;;;;;;5132982;28;20440;-60
2023/02/12 14:04:58;;;;;;;8.40;6.70;;;;;;;;;;5132900;28;20951;-60
2023/02/12 14:07:25;;;;;;;6.87;5.43;;;;;;;;;;5133093;28;20449;-60
2023/02/12 14:10:05;;;;;;;9.20;6.07;;;;;;;;;;5133151;28;20473;-60
2023/02/12 14:12:34;;;;;;;5.63;4.90;;;;;;;;;;5133044;28;20527;-60
2023/02/12 14:15:06;;;;;;;6.67;4.40;;;;;;;;;;5132835;28;20475;-60
2023/02/12 14:17:50;;;;;;;5.57;5.07;;;;;;;;;;5132894;28;20540;-60
2023/02/12 14:20:22;;;;;;;5.93;4.30;;;;;;;;;;5132975;28;20452;-60
2023/02/12 14:23:01;;;;;;;7.20;4.80;;;;;;;;;;5132971;28;20532;-60
2023/02/12 14:25:33;;;;;;;5.77;4.33;;;;;;;;;;5132799;28;20494;-60
2023/02/12 14:28:06;;;;;;;13.00;4.57;;;;;;;;;;5132854;28;20445;-60
2023/02/12 14:30:35;;;;;;;8.37;4.43;;;;;;;;;;5132973;27;20455;-60
2023/02/12 14:33:19;;;;;;;5.73;4.90;;;;;;;;;;5136496;27;20449;-61
2023/02/12 14:35:48;;;;;;;4.80;4.33;;;;;;;;;;5136327;27;20476;-61
2023/02/12 14:38:33;;;;;;;6.63;5.50;;;;;;;;;;5136218;27;20449;-61
2023/02/12 14:41:32;;;;;;;6.70;5.17;;;;;;;;;;5136395;27;20447;-61
2023/02/12 14:44:14;;;;;;;6.53;5.70;;;;;;;;;;5136531;27;20444;-61
2023/02/12 14:46:46;;;;;;;6.40;5.33;;;;;;;;;;5135499;27;20447;-60
2023/02/12 14:49:21;;;;;;;5.90;5.40;;;;;;;;;;5136348;27;20477;-60
2023/02/12 14:51:52;;;;;;;6.30;5.70;;;;;;;;;;5136179;27;20536;-60
2023/02/12 14:54:25;;;;;;;6.17;5.53;;;;;;;;;;5136122;27;20441;-60
2023/02/12 14:56:54;;;;;;;9.93;5.87;;;;;;;;;;5136068;27;20447;-60
2023/02/12 14:59:23;;;;;;;8.07;6.67;;;;;;;;;;5136221;27;20449;-60